Beaumont, CA

10:03 PM PDT on September 17, 2014 (GMT -0700)
San Bernardino International | Change Station
CLOSE
Current Station
Airport
Location: San Bernardino,
Elevation: 1158 ft
Nearby Weather Stations

Elev 1158 ft 34.09 °N, 117.25 °W | Updated 3 hours ago

Partly Cloudy
Partly Cloudy
88 °F
Feels Like 88 °F
N
10
Wind Variable Wind from WSW

Today
High -- | Low -- °F
--% Chance of Precip.
Yesterday
High -- | Low -- °F
Precip. -- in
6:32 AM 6:51 PM
Waning Crescent, 30% visible
Pressure 29.75 in
Visibility 10.0 miles
Clouds Scattered Clouds 8000 ft
Dew Point 52 °F
Humidity 29%
Rainfall 0.00 in
Snow Depth 0 in , 1 in , 0 in
UV 0 out of 12
Pollen 6.90 out of 12
Air Quality Not available.
Flu Activity Not available.
METAR KSBD 180147Z 24009KT 10SM SCT080 31/11 A2975

More Conditions Fewer Conditions

Pressure 29.75 in
Visibility 10.0 miles
Clouds Scattered Clouds 8000 ft
Dew Point 52 °F
Humidity 29%
Rainfall 0.00 in
Snow Depth 0 in , 1 in , 0 in
UV 0 out of 12
Pollen 6.90 out of 12
Air Quality Not available.
Flu Activity Not available.
METAR KSBD 180147Z 24009KT 10SM SCT080 31/11 A2975

More Conditions Fewer Conditions

10-Day Weather Forecast

Almanac

Astronomy

Sep. 17, 2014 Rise Set
Actual Time 6:32 AM PDT 6:51 PM PDT
Civil Twilight 6:07 AM PDT 7:16 PM PDT
Nautical Twilight 5:38 AM PDT 7:45 PM PDT
Astronomical Twilight 5:08 AM PDT 8:15 PM PDT
Moon 12:48 AM PDT (9/17) 2:53 PM PDT (9/17)
Length of Visible Light 13h 08m
Length of Day
12h 18m
Tomorrow will be 2m 5s shorter.
Waning Crescent, 30% of the Moon is Illuminated
Sep 18
Waning Crescent
Sep 24
New
Oct 1
First Quarter
Oct 8
Full
Oct 15
Last Quarter

Yesterday's Extremes

State Highs State Lows

Community

WunderPhotos

Upload Photos

1,754,288 photos uploaded!

Nearby

Air Quality

  Air Quality AQ Index Pollutant
Yesterday Moderate
PM2.5
Yesterday Good
OZONE
Thursday Moderate
OZONE
Thursday Good
PM10
Thursday Good
CO
Thursday Good
NO2

Snow Depth

Station Depth Elevation
Leavitt Lake 0 in 9400 ft
CSS Lab 2 in 6900 ft
Adin Mountain 1 in 6200 ft
Tahoe City Cross 0 in 6750 ft
Spratt Creek 0 in 6200 ft

Earthquake Activity

City Distance Mag. Time & Date
La Quinta, California 43 miles 2.7 8:59 PM PDT
2014-09-15
Minimum magnitude displayed is 2.5.

Coastal Water Temperatures

Place Temperature
No Stations Reporting

Nearby Weather Stations